sensor_id;sensor_type;location;lat;lon;timestamp;P1;durP1;ratioP1;P2;durP2;ratioP2
75216;SDS011;63800;51.972;5.682;2023-07-30T00:01:39;10.15;;;4.45;;
75216;SDS011;63800;51.972;5.682;2023-07-30T00:04:05;6.88;;;3.53;;
75216;SDS011;63800;51.972;5.682;2023-07-30T00:06:30;8.90;;;4.05;;
75216;SDS011;63800;51.972;5.682;2023-07-30T00:08:56;8.07;;;3.95;;
75216;SDS011;63800;51.972;5.682;2023-07-30T00:11:21;9.38;;;4.60;;
75216;SDS011;63800;51.972;5.682;2023-07-30T00:13:47;8.40;;;4.38;;
75216;SDS011;63800;51.972;5.682;2023-07-30T00:16:12;8.27;;;4.25;;
75216;SDS011;63800;51.972;5.682;2023-07-30T00:18:38;5.60;;;4.28;;
75216;SDS011;63800;51.972;5.682;2023-07-30T00:21:03;9.60;;;5.10;;
75216;SDS011;63800;51.972;5.682;2023-07-30T00:23:28;8.40;;;4.65;;
75216;SDS011;63800;51.972;5.682;2023-07-30T00:25:54;8.93;;;4.35;;
75216;SDS011;63800;51.972;5.682;2023-07-30T00:28:19;9.43;;;4.00;;
75216;SDS011;63800;51.972;5.682;2023-07-30T00:30:45;8.05;;;3.50;;
75216;SDS011;63800;51.972;5.682;2023-07-30T00:33:11;5.85;;;3.08;;
75216;SDS011;63800;51.972;5.682;2023-07-30T00:35:37;10.95;;;3.30;;
75216;SDS011;63800;51.972;5.682;2023-07-30T00:38:02;5.78;;;3.05;;
75216;SDS011;63800;51.972;5.682;2023-07-30T00:40:28;8.55;;;3.33;;
75216;SDS011;63800;51.972;5.682;2023-07-30T00:42:53;5.88;;;3.00;;
75216;SDS011;63800;51.972;5.682;2023-07-30T00:45:18;7.32;;;3.55;;
75216;SDS011;63800;51.972;5.682;2023-07-30T00:47:44;6.72;;;3.00;;
75216;SDS011;63800;51.972;5.682;2023-07-30T00:50:10;5.35;;;2.60;;
75216;SDS011;63800;51.972;5.682;2023-07-30T00:52:37;7.82;;;3.17;;
75216;SDS011;63800;51.972;5.682;2023-07-30T00:55:04;6.90;;;3.05;;
75216;SDS011;63800;51.972;5.682;2023-07-30T00:57:31;5.75;;;2.88;;
75216;SDS011;63800;51.972;5.682;2023-07-30T00:59:57;7.40;;;3.33;;
75216;SDS011;63800;51.972;5.682;2023-07-30T01:02:23;8.00;;;3.28;;
75216;SDS011;63800;51.972;5.682;2023-07-30T01:04:48;6.90;;;3.20;;
75216;SDS011;63800;51.972;5.682;2023-07-30T01:07:14;7.68;;;3.00;;
75216;SDS011;63800;51.972;5.682;2023-07-30T01:09:40;6.88;;;2.88;;
75216;SDS011;63800;51.972;5.682;2023-07-30T01:12:06;8.00;;;2.90;;
75216;SDS011;63800;51.972;5.682;2023-07-30T01:14:32;8.43;;;2.97;;
75216;SDS011;63800;51.972;5.682;2023-07-30T01:16:58;5.63;;;2.63;;
75216;SDS011;63800;51.972;5.682;2023-07-30T01:19:23;7.78;;;3.35;;
75216;SDS011;63800;51.972;5.682;2023-07-30T01:21:48;5.30;;;2.45;;
75216;SDS011;63800;51.972;5.682;2023-07-30T01:24:14;8.18;;;3.00;;
75216;SDS011;63800;51.972;5.682;2023-07-30T01:26:43;7.22;;;3.03;;
75216;SDS011;63800;51.972;5.682;2023-07-30T01:29:14;9.57;;;3.08;;
75216;SDS011;63800;51.972;5.682;2023-07-30T01:31:46;4.30;;;2.75;;
75216;SDS011;63800;51.972;5.682;2023-07-30T01:34:16;4.85;;;2.38;;
75216;SDS011;63800;51.972;5.682;2023-07-30T01:36:43;6.68;;;3.10;;
75216;SDS011;63800;51.972;5.682;2023-07-30T01:39:09;9.05;;;3.20;;
75216;SDS011;63800;51.972;5.682;2023-07-30T01:41:35;6.10;;;2.85;;
75216;SDS011;63800;51.972;5.682;2023-07-30T01:44:01;6.05;;;2.60;;
75216;SDS011;63800;51.972;5.682;2023-07-30T01:46:26;6.55;;;3.03;;
75216;SDS011;63800;51.972;5.682;2023-07-30T01:48:52;5.60;;;3.20;;
75216;SDS011;63800;51.972;5.682;2023-07-30T01:51:17;7.05;;;3.67;;
75216;SDS011;63800;51.972;5.682;2023-07-30T01:53:42;8.65;;;3.47;;
75216;SDS011;63800;51.972;5.682;2023-07-30T01:56:08;9.15;;;3.50;;
75216;SDS011;63800;51.972;5.682;2023-07-30T01:58:33;7.40;;;3.40;;
75216;SDS011;63800;51.972;5.682;2023-07-30T02:00:59;8.27;;;3.78;;
75216;SDS011;63800;51.972;5.682;2023-07-30T02:03:24;7.30;;;3.20;;
75216;SDS011;63800;51.972;5.682;2023-07-30T02:05:50;6.88;;;4.00;;
75216;SDS011;63800;51.972;5.682;2023-07-30T02:08:15;6.95;;;3.80;;
75216;SDS011;63800;51.972;5.682;2023-07-30T02:10:41;10.65;;;3.75;;
75216;SDS011;63800;51.972;5.682;2023-07-30T02:13:06;8.05;;;3.67;;
75216;SDS011;63800;51.972;5.682;2023-07-30T02:15:32;8.18;;;4.10;;
75216;SDS011;63800;51.972;5.682;2023-07-30T02:17:57;11.98;;;4.63;;
75216;SDS011;63800;51.972;5.682;2023-07-30T02:20:23;9.60;;;4.35;;
75216;SDS011;63800;51.972;5.682;2023-07-30T02:22:48;8.18;;;4.63;;
75216;SDS011;63800;51.972;5.682;2023-07-30T02:25:13;9.40;;;4.30;;
75216;SDS011;63800;51.972;5.682;2023-07-30T02:27:39;13.45;;;5.30;;
75216;SDS011;63800;51.972;5.682;2023-07-30T02:30:05;8.00;;;3.90;;
75216;SDS011;63800;51.972;5.682;2023-07-30T02:32:30;7.60;;;3.90;;
75216;SDS011;63800;51.972;5.682;2023-07-30T02:34:56;10.40;;;4.05;;
75216;SDS011;63800;51.972;5.682;2023-07-30T02:37:21;13.55;;;3.60;;
75216;SDS011;63800;51.972;5.682;2023-07-30T02:39:47;9.52;;;4.05;;
75216;SDS011;63800;51.972;5.682;2023-07-30T02:42:12;11.23;;;5.50;;
75216;SDS011;63800;51.972;5.682;2023-07-30T02:44:37;10.05;;;4.22;;
75216;SDS011;63800;51.972;5.682;2023-07-30T02:47:03;9.63;;;3.72;;
75216;SDS011;63800;51.972;5.682;2023-07-30T02:49:29;10.95;;;4.38;;
75216;SDS011;63800;51.972;5.682;2023-07-30T02:51:54;11.30;;;4.60;;
75216;SDS011;63800;51.972;5.682;2023-07-30T02:54:19;12.73;;;4.97;;
75216;SDS011;63800;51.972;5.682;2023-07-30T02:56:48;12.13;;;4.70;;
75216;SDS011;63800;51.972;5.682;2023-07-30T02:59:13;10.02;;;3.90;;
75216;SDS011;63800;51.972;5.682;2023-07-30T03:01:39;15.10;;;5.03;;
75216;SDS011;63800;51.972;5.682;2023-07-30T03:04:04;10.70;;;5.00;;
75216;SDS011;63800;51.972;5.682;2023-07-30T03:06:30;15.00;;;6.00;;
75216;SDS011;63800;51.972;5.682;2023-07-30T03:08:56;9.05;;;4.45;;
75216;SDS011;63800;51.972;5.682;2023-07-30T03:11:22;11.95;;;4.88;;
75216;SDS011;63800;51.972;5.682;2023-07-30T03:13:48;12.60;;;5.00;;
75216;SDS011;63800;51.972;5.682;2023-07-30T03:16:13;11.10;;;4.90;;
75216;SDS011;63800;51.972;5.682;2023-07-30T03:18:39;12.43;;;4.93;;
75216;SDS011;63800;51.972;5.682;2023-07-30T03:21:04;13.50;;;5.65;;
75216;SDS011;63800;51.972;5.682;2023-07-30T03:23:30;10.95;;;5.38;;
75216;SDS011;63800;51.972;5.682;2023-07-30T03:25:56;13.90;;;6.53;;
75216;SDS011;63800;51.972;5.682;2023-07-30T03:28:22;16.90;;;6.22;;
75216;SDS011;63800;51.972;5.682;2023-07-30T03:30:48;14.27;;;5.90;;
75216;SDS011;63800;51.972;5.682;2023-07-30T03:33:13;18.85;;;8.27;;
75216;SDS011;63800;51.972;5.682;2023-07-30T03:35:39;19.15;;;8.88;;
75216;SDS011;63800;51.972;5.682;2023-07-30T03:38:04;16.38;;;7.38;;
75216;SDS011;63800;51.972;5.682;2023-07-30T03:40:29;15.20;;;7.82;;
75216;SDS011;63800;51.972;5.682;2023-07-30T03:42:55;21.88;;;8.20;;
75216;SDS011;63800;51.972;5.682;2023-07-30T03:45:20;16.05;;;7.70;;
75216;SDS011;63800;51.972;5.682;2023-07-30T03:47:46;22.98;;;8.50;;
75216;SDS011;63800;51.972;5.682;2023-07-30T03:50:11;17.98;;;8.07;;
75216;SDS011;63800;51.972;5.682;2023-07-30T03:52:37;16.90;;;8.13;;
75216;SDS011;63800;51.972;5.682;2023-07-30T03:55:02;20.80;;;8.82;;
75216;SDS011;63800;51.972;5.682;2023-07-30T03:57:28;19.38;;;8.30;;
75216;SDS011;63800;51.972;5.682;2023-07-30T03:59:53;16.88;;;8.32;;
75216;SDS011;63800;51.972;5.682;2023-07-30T04:02:19;21.17;;;8.52;;
75216;SDS011;63800;51.972;5.682;2023-07-30T04:04:44;19.98;;;8.23;;
75216;SDS011;63800;51.972;5.682;2023-07-30T04:07:11;23.92;;;8.98;;
75216;SDS011;63800;51.972;5.682;2023-07-30T04:09:36;17.67;;;7.97;;
75216;SDS011;63800;51.972;5.682;2023-07-30T04:12:02;25.83;;;8.15;;
75216;SDS011;63800;51.972;5.682;2023-07-30T04:14:27;17.85;;;7.25;;
75216;SDS011;63800;51.972;5.682;2023-07-30T04:16:53;18.23;;;7.43;;
75216;SDS011;63800;51.972;5.682;2023-07-30T04:19:18;15.70;;;7.55;;
75216;SDS011;63800;51.972;5.682;2023-07-30T04:21:44;16.27;;;7.45;;
75216;SDS011;63800;51.972;5.682;2023-07-30T04:24:09;15.70;;;7.50;;
75216;SDS011;63800;51.972;5.682;2023-07-30T04:26:35;18.20;;;8.63;;
75216;SDS011;63800;51.972;5.682;2023-07-30T04:29:00;22.58;;;8.55;;
75216;SDS011;63800;51.972;5.682;2023-07-30T04:31:26;19.55;;;9.07;;
75216;SDS011;63800;51.972;5.682;2023-07-30T04:33:51;16.38;;;8.27;;
75216;SDS011;63800;51.972;5.682;2023-07-30T04:36:17;22.35;;;11.10;;
75216;SDS011;63800;51.972;5.682;2023-07-30T04:38:42;22.58;;;11.05;;
75216;SDS011;63800;51.972;5.682;2023-07-30T04:41:07;20.42;;;9.80;;
75216;SDS011;63800;51.972;5.682;2023-07-30T04:43:33;18.90;;;9.65;;
75216;SDS011;63800;51.972;5.682;2023-07-30T04:45:58;21.23;;;9.50;;
75216;SDS011;63800;51.972;5.682;2023-07-30T04:48:24;18.35;;;8.80;;
75216;SDS011;63800;51.972;5.682;2023-07-30T04:50:49;16.92;;;7.90;;
75216;SDS011;63800;51.972;5.682;2023-07-30T04:53:14;18.80;;;9.55;;
75216;SDS011;63800;51.972;5.682;2023-07-30T04:55:42;20.83;;;8.88;;
75216;SDS011;63800;51.972;5.682;2023-07-30T04:58:07;20.67;;;9.77;;
75216;SDS011;63800;51.972;5.682;2023-07-30T05:00:33;23.98;;;10.57;;
75216;SDS011;63800;51.972;5.682;2023-07-30T05:02:58;22.13;;;10.90;;
75216;SDS011;63800;51.972;5.682;2023-07-30T05:05:23;20.23;;;11.18;;
75216;SDS011;63800;51.972;5.682;2023-07-30T05:07:49;27.45;;;10.80;;
75216;SDS011;63800;51.972;5.682;2023-07-30T05:10:15;22.10;;;10.48;;
75216;SDS011;63800;51.972;5.682;2023-07-30T05:12:41;20.90;;;10.70;;
75216;SDS011;63800;51.972;5.682;2023-07-30T05:15:07;23.50;;;11.40;;
75216;SDS011;63800;51.972;5.682;2023-07-30T05:17:32;22.10;;;11.45;;
75216;SDS011;63800;51.972;5.682;2023-07-30T05:19:58;22.30;;;11.25;;
75216;SDS011;63800;51.972;5.682;2023-07-30T05:22:23;24.75;;;11.57;;
75216;SDS011;63800;51.972;5.682;2023-07-30T05:24:50;22.73;;;11.88;;
75216;SDS011;63800;51.972;5.682;2023-07-30T05:27:15;26.02;;;11.32;;
75216;SDS011;63800;51.972;5.682;2023-07-30T05:29:41;23.60;;;11.70;;
75216;SDS011;63800;51.972;5.682;2023-07-30T05:32:07;26.60;;;11.40;;
75216;SDS011;63800;51.972;5.682;2023-07-30T05:34:32;22.63;;;10.38;;
75216;SDS011;63800;51.972;5.682;2023-07-30T05:36:58;19.92;;;10.55;;
75216;SDS011;63800;51.972;5.682;2023-07-30T05:39:24;23.60;;;10.63;;
75216;SDS011;63800;51.972;5.682;2023-07-30T05:41:49;21.95;;;11.43;;
75216;SDS011;63800;51.972;5.682;2023-07-30T05:44:15;21.92;;;10.50;;
75216;SDS011;63800;51.972;5.682;2023-07-30T05:46:40;21.95;;;11.63;;
75216;SDS011;63800;51.972;5.682;2023-07-30T05:49:05;24.73;;;13.80;;
75216;SDS011;63800;51.972;5.682;2023-07-30T05:51:31;24.75;;;13.35;;
75216;SDS011;63800;51.972;5.682;2023-07-30T05:53:56;27.42;;;13.52;;
75216;SDS011;63800;51.972;5.682;2023-07-30T05:56:22;29.63;;;14.52;;
75216;SDS011;63800;51.972;5.682;2023-07-30T05:58:47;26.63;;;14.60;;
75216;SDS011;63800;51.972;5.682;2023-07-30T06:01:13;30.20;;;14.23;;
75216;SDS011;63800;51.972;5.682;2023-07-30T06:03:38;26.27;;;13.68;;
75216;SDS011;63800;51.972;5.682;2023-07-30T06:06:03;28.33;;;13.70;;
75216;SDS011;63800;51.972;5.682;2023-07-30T06:08:29;30.02;;;14.15;;
75216;SDS011;63800;51.972;5.682;2023-07-30T06:10:55;31.60;;;15.45;;
75216;SDS011;63800;51.972;5.682;2023-07-30T06:13:25;28.23;;;13.80;;
75216;SDS011;63800;51.972;5.682;2023-07-30T06:15:50;33.88;;;15.13;;
75216;SDS011;63800;51.972;5.682;2023-07-30T06:18:15;26.27;;;12.65;;
75216;SDS011;63800;51.972;5.682;2023-07-30T06:20:41;26.38;;;13.02;;
75216;SDS011;63800;51.972;5.682;2023-07-30T06:23:06;28.85;;;13.70;;
75216;SDS011;63800;51.972;5.682;2023-07-30T06:25:32;27.23;;;13.02;;
75216;SDS011;63800;51.972;5.682;2023-07-30T06:27:57;27.17;;;13.27;;
75216;SDS011;63800;51.972;5.682;2023-07-30T06:30:23;25.30;;;12.63;;
75216;SDS011;63800;51.972;5.682;2023-07-30T06:32:49;23.65;;;12.80;;
75216;SDS011;63800;51.972;5.682;2023-07-30T06:35:15;28.55;;;14.60;;
75216;SDS011;63800;51.972;5.682;2023-07-30T06:37:41;28.02;;;14.15;;
75216;SDS011;63800;51.972;5.682;2023-07-30T06:40:06;26.98;;;13.82;;
75216;SDS011;63800;51.972;5.682;2023-07-30T06:42:32;25.48;;;13.20;;
75216;SDS011;63800;51.972;5.682;2023-07-30T06:44:58;24.73;;;13.57;;
75216;SDS011;63800;51.972;5.682;2023-07-30T06:47:24;28.75;;;14.10;;
75216;SDS011;63800;51.972;5.682;2023-07-30T06:49:49;28.63;;;13.45;;
75216;SDS011;63800;51.972;5.682;2023-07-30T06:52:15;28.65;;;13.75;;
75216;SDS011;63800;51.972;5.682;2023-07-30T06:54:40;19.83;;;12.15;;
75216;SDS011;63800;51.972;5.682;2023-07-30T06:57:05;27.38;;;14.73;;
75216;SDS011;63800;51.972;5.682;2023-07-30T06:59:31;26.27;;;13.50;;
75216;SDS011;63800;51.972;5.682;2023-07-30T07:01:56;23.65;;;13.75;;
75216;SDS011;63800;51.972;5.682;2023-07-30T07:04:22;25.05;;;14.82;;
75216;SDS011;63800;51.972;5.682;2023-07-30T07:06:47;25.30;;;13.55;;
75216;SDS011;63800;51.972;5.682;2023-07-30T07:09:13;29.50;;;13.90;;
75216;SDS011;63800;51.972;5.682;2023-07-30T07:11:38;26.83;;;13.25;;
75216;SDS011;63800;51.972;5.682;2023-07-30T07:14:04;29.08;;;13.77;;
75216;SDS011;63800;51.972;5.682;2023-07-30T07:16:29;27.17;;;14.13;;
75216;SDS011;63800;51.972;5.682;2023-07-30T07:18:54;26.08;;;14.07;;
75216;SDS011;63800;51.972;5.682;2023-07-30T07:21:20;32.97;;;14.80;;
75216;SDS011;63800;51.972;5.682;2023-07-30T07:23:46;30.13;;;14.95;;
75216;SDS011;63800;51.972;5.682;2023-07-30T07:26:11;29.67;;;15.25;;
75216;SDS011;63800;51.972;5.682;2023-07-30T07:28:36;28.85;;;13.82;;
75216;SDS011;63800;51.972;5.682;2023-07-30T07:31:02;29.00;;;13.73;;
75216;SDS011;63800;51.972;5.682;2023-07-30T07:33:27;24.77;;;14.60;;
75216;SDS011;63800;51.972;5.682;2023-07-30T07:36:06;28.35;;;13.55;;
75216;SDS011;63800;51.972;5.682;2023-07-30T07:38:32;27.77;;;13.13;;
75216;SDS011;63800;51.972;5.682;2023-07-30T07:40:59;23.52;;;12.75;;
75216;SDS011;63800;51.972;5.682;2023-07-30T07:43:25;22.02;;;12.02;;
75216;SDS011;63800;51.972;5.682;2023-07-30T07:45:51;19.92;;;11.70;;
75216;SDS011;63800;51.972;5.682;2023-07-30T07:48:16;23.15;;;11.02;;
75216;SDS011;63800;51.972;5.682;2023-07-30T07:50:42;19.42;;;9.90;;
75216;SDS011;63800;51.972;5.682;2023-07-30T07:53:07;19.65;;;9.43;;
75216;SDS011;63800;51.972;5.682;2023-07-30T07:55:33;18.02;;;9.38;;
75216;SDS011;63800;51.972;5.682;2023-07-30T07:57:58;17.88;;;8.05;;
75216;SDS011;63800;51.972;5.682;2023-07-30T08:00:24;18.48;;;9.77;;
75216;SDS011;63800;51.972;5.682;2023-07-30T08:02:49;17.58;;;8.93;;
75216;SDS011;63800;51.972;5.682;2023-07-30T08:05:15;19.20;;;8.65;;
75216;SDS011;63800;51.972;5.682;2023-07-30T08:07:41;18.15;;;8.27;;
75216;SDS011;63800;51.972;5.682;2023-07-30T08:10:06;16.95;;;8.60;;
75216;SDS011;63800;51.972;5.682;2023-07-30T08:12:32;22.75;;;9.95;;
75216;SDS011;63800;51.972;5.682;2023-07-30T08:14:58;21.17;;;8.70;;
75216;SDS011;63800;51.972;5.682;2023-07-30T08:17:24;19.13;;;8.80;;
75216;SDS011;63800;51.972;5.682;2023-07-30T08:19:50;23.83;;;10.00;;
75216;SDS011;63800;51.972;5.682;2023-07-30T08:22:15;17.27;;;9.50;;
75216;SDS011;63800;51.972;5.682;2023-07-30T08:24:41;22.63;;;10.73;;
75216;SDS011;63800;51.972;5.682;2023-07-30T08:27:06;23.27;;;11.32;;
75216;SDS011;63800;51.972;5.682;2023-07-30T08:29:32;18.55;;;9.43;;
75216;SDS011;63800;51.972;5.682;2023-07-30T08:31:57;18.52;;;9.57;;
75216;SDS011;63800;51.972;5.682;2023-07-30T08:34:23;16.42;;;9.95;;
75216;SDS011;63800;51.972;5.682;2023-07-30T08:36:48;21.15;;;9.75;;
75216;SDS011;63800;51.972;5.682;2023-07-30T08:39:14;16.73;;;8.70;;
75216;SDS011;63800;51.972;5.682;2023-07-30T08:41:39;19.63;;;8.95;;
75216;SDS011;63800;51.972;5.682;2023-07-30T08:44:05;15.15;;;8.65;;
75216;SDS011;63800;51.972;5.682;2023-07-30T08:46:31;18.45;;;9.20;;
75216;SDS011;63800;51.972;5.682;2023-07-30T08:48:57;16.25;;;9.00;;
75216;SDS011;63800;51.972;5.682;2023-07-30T08:51:22;18.15;;;8.15;;
75216;SDS011;63800;51.972;5.682;2023-07-30T08:53:49;18.00;;;7.95;;
75216;SDS011;63800;51.972;5.682;2023-07-30T08:56:16;17.75;;;7.90;;
75216;SDS011;63800;51.972;5.682;2023-07-30T08:58:41;15.80;;;7.05;;
75216;SDS011;63800;51.972;5.682;2023-07-30T09:01:08;12.43;;;6.72;;
75216;SDS011;63800;51.972;5.682;2023-07-30T09:03:40;15.13;;;6.57;;
75216;SDS011;63800;51.972;5.682;2023-07-30T09:06:08;18.75;;;6.32;;
75216;SDS011;63800;51.972;5.682;2023-07-30T09:08:34;10.80;;;6.18;;
75216;SDS011;63800;51.972;5.682;2023-07-30T09:11:06;14.00;;;6.68;;
75216;SDS011;63800;51.972;5.682;2023-07-30T09:13:38;13.48;;;6.10;;
75216;SDS011;63800;51.972;5.682;2023-07-30T09:16:11;10.63;;;5.43;;
75216;SDS011;63800;51.972;5.682;2023-07-30T09:18:38;12.55;;;5.53;;
75216;SDS011;63800;51.972;5.682;2023-07-30T09:21:08;17.15;;;6.13;;
75216;SDS011;63800;51.972;5.682;2023-07-30T09:23:45;10.20;;;5.90;;
75216;SDS011;63800;51.972;5.682;2023-07-30T09:26:12;10.00;;;4.72;;
75216;SDS011;63800;51.972;5.682;2023-07-30T09:28:39;18.95;;;5.60;;
75216;SDS011;63800;51.972;5.682;2023-07-30T09:31:05;14.70;;;5.72;;
75216;SDS011;63800;51.972;5.682;2023-07-30T09:33:32;12.65;;;5.22;;
75216;SDS011;63800;51.972;5.682;2023-07-30T09:35:58;10.63;;;4.60;;
75216;SDS011;63800;51.972;5.682;2023-07-30T09:38:27;14.10;;;5.40;;
75216;SDS011;63800;51.972;5.682;2023-07-30T09:40:59;12.63;;;5.43;;
75216;SDS011;63800;51.972;5.682;2023-07-30T09:43:29;9.80;;;4.38;;
75216;SDS011;63800;51.972;5.682;2023-07-30T09:46:02;12.65;;;4.43;;
75216;SDS011;63800;51.972;5.682;2023-07-30T09:48:32;6.75;;;3.58;;
75216;SDS011;63800;51.972;5.682;2023-07-30T09:50:59;13.20;;;4.00;;
75216;SDS011;63800;51.972;5.682;2023-07-30T09:53:28;10.75;;;4.22;;
75216;SDS011;63800;51.972;5.682;2023-07-30T09:55:55;12.75;;;4.43;;
75216;SDS011;63800;51.972;5.682;2023-07-30T09:58:20;14.98;;;4.30;;
75216;SDS011;63800;51.972;5.682;2023-07-30T10:00:46;9.73;;;3.78;;
75216;SDS011;63800;51.972;5.682;2023-07-30T10:03:14;10.45;;;4.15;;
75216;SDS011;63800;51.972;5.682;2023-07-30T10:05:44;6.10;;;3.42;;
75216;SDS011;63800;51.972;5.682;2023-07-30T10:08:12;9.00;;;3.60;;
75216;SDS011;63800;51.972;5.682;2023-07-30T10:10:44;8.55;;;3.58;;
75216;SDS011;63800;51.972;5.682;2023-07-30T10:13:10;9.20;;;4.00;;
75216;SDS011;63800;51.972;5.682;2023-07-30T10:15:38;10.38;;;3.35;;
75216;SDS011;63800;51.972;5.682;2023-07-30T10:18:04;7.25;;;3.20;;
75216;SDS011;63800;51.972;5.682;2023-07-30T10:20:30;9.18;;;2.92;;
75216;SDS011;63800;51.972;5.682;2023-07-30T10:22:59;7.70;;;3.17;;
75216;SDS011;63800;51.972;5.682;2023-07-30T10:28:06;10.00;;;3.25;;
75216;SDS011;63800;51.972;5.682;2023-07-30T10:30:32;6.63;;;2.80;;
75216;SDS011;63800;51.972;5.682;2023-07-30T10:33:01;7.70;;;3.05;;
75216;SDS011;63800;51.972;5.682;2023-07-30T10:35:35;7.25;;;2.60;;
75216;SDS011;63800;51.972;5.682;2023-07-30T10:40:42;7.00;;;2.80;;
75216;SDS011;63800;51.972;5.682;2023-07-30T10:43:26;5.43;;;2.53;;
75216;SDS011;63800;51.972;5.682;2023-07-30T10:45:52;8.43;;;2.80;;
75216;SDS011;63800;51.972;5.682;2023-07-30T10:48:18;10.38;;;2.90;;
75216;SDS011;63800;51.972;5.682;2023-07-30T10:50:43;8.05;;;2.90;;
75216;SDS011;63800;51.972;5.682;2023-07-30T10:53:14;10.93;;;3.67;;
75216;SDS011;63800;51.972;5.682;2023-07-30T10:55:41;8.07;;;3.10;;
75216;SDS011;63800;51.972;5.682;2023-07-30T10:58:07;10.35;;;3.40;;
75216;SDS011;63800;51.972;5.682;2023-07-30T11:00:32;6.53;;;2.78;;
75216;SDS011;63800;51.972;5.682;2023-07-30T11:02:58;4.97;;;2.47;;
75216;SDS011;63800;51.972;5.682;2023-07-30T11:05:23;9.88;;;2.90;;
75216;SDS011;63800;51.972;5.682;2023-07-30T11:07:50;8.35;;;2.67;;
75216;SDS011;63800;51.972;5.682;2023-07-30T11:10:16;6.80;;;2.65;;
75216;SDS011;63800;51.972;5.682;2023-07-30T11:12:42;6.65;;;2.30;;
75216;SDS011;63800;51.972;5.682;2023-07-30T11:15:07;7.97;;;2.30;;
75216;SDS011;63800;51.972;5.682;2023-07-30T11:17:34;5.60;;;2.15;;
75216;SDS011;63800;51.972;5.682;2023-07-30T11:20:00;6.18;;;2.00;;
75216;SDS011;63800;51.972;5.682;2023-07-30T11:22:29;6.18;;;2.30;;
75216;SDS011;63800;51.972;5.682;2023-07-30T11:24:56;2.60;;;1.48;;
75216;SDS011;63800;51.972;5.682;2023-07-30T11:27:21;5.18;;;1.85;;
75216;SDS011;63800;51.972;5.682;2023-07-30T11:29:53;7.70;;;2.15;;
75216;SDS011;63800;51.972;5.682;2023-07-30T11:32:20;4.88;;;1.60;;
75216;SDS011;63800;51.972;5.682;2023-07-30T11:34:45;4.45;;;1.70;;
75216;SDS011;63800;51.972;5.682;2023-07-30T11:37:11;4.00;;;1.65;;
75216;SDS011;63800;51.972;5.682;2023-07-30T11:39:36;4.55;;;1.75;;
75216;SDS011;63800;51.972;5.682;2023-07-30T11:42:02;5.85;;;1.92;;
75216;SDS011;63800;51.972;5.682;2023-07-30T11:44:31;4.40;;;1.98;;
75216;SDS011;63800;51.972;5.682;2023-07-30T11:46:56;7.63;;;2.03;;
75216;SDS011;63800;51.972;5.682;2023-07-30T11:49:22;6.30;;;1.83;;
75216;SDS011;63800;51.972;5.682;2023-07-30T11:51:47;5.45;;;2.10;;
75216;SDS011;63800;51.972;5.682;2023-07-30T11:54:19;4.50;;;1.55;;
75216;SDS011;63800;51.972;5.682;2023-07-30T11:56:46;3.78;;;1.50;;
75216;SDS011;63800;51.972;5.682;2023-07-30T11:59:12;4.75;;;1.85;;
75216;SDS011;63800;51.972;5.682;2023-07-30T12:01:37;5.90;;;1.90;;
75216;SDS011;63800;51.972;5.682;2023-07-30T12:04:03;5.45;;;1.48;;
75216;SDS011;63800;51.972;5.682;2023-07-30T12:06:39;6.50;;;1.75;;
75216;SDS011;63800;51.972;5.682;2023-07-30T12:09:12;5.88;;;1.77;;
75216;SDS011;63800;51.972;5.682;2023-07-30T12:11:56;5.63;;;1.52;;
75216;SDS011;63800;51.972;5.682;2023-07-30T12:14:27;4.43;;;2.00;;
75216;SDS011;63800;51.972;5.682;2023-07-30T12:17:00;3.30;;;1.45;;
75216;SDS011;63800;51.972;5.682;2023-07-30T12:19:26;3.80;;;1.67;;
75216;SDS011;63800;51.972;5.682;2023-07-30T12:21:51;3.88;;;1.52;;
75216;SDS011;63800;51.972;5.682;2023-07-30T12:24:16;6.18;;;1.73;;
75216;SDS011;63800;51.972;5.682;2023-07-30T12:26:42;5.90;;;2.08;;
75216;SDS011;63800;51.972;5.682;2023-07-30T12:29:07;2.42;;;1.30;;
75216;SDS011;63800;51.972;5.682;2023-07-30T12:31:33;3.40;;;1.50;;
75216;SDS011;63800;51.972;5.682;2023-07-30T12:33:58;4.47;;;1.83;;
75216;SDS011;63800;51.972;5.682;2023-07-30T12:36:24;5.63;;;1.60;;
75216;SDS011;63800;51.972;5.682;2023-07-30T12:38:49;4.10;;;1.33;;
75216;SDS011;63800;51.972;5.682;2023-07-30T12:41:17;4.38;;;1.38;;
75216;SDS011;63800;51.972;5.682;2023-07-30T12:43:45;5.93;;;1.73;;
75216;SDS011;63800;51.972;5.682;2023-07-30T12:46:10;3.95;;;1.45;;
75216;SDS011;63800;51.972;5.682;2023-07-30T12:48:35;2.42;;;1.10;;
75216;SDS011;63800;51.972;5.682;2023-07-30T12:51:01;6.75;;;1.55;;
75216;SDS011;63800;51.972;5.682;2023-07-30T12:53:27;4.03;;;1.50;;
75216;SDS011;63800;51.972;5.682;2023-07-30T12:55:52;4.63;;;1.75;;
75216;SDS011;63800;51.972;5.682;2023-07-30T12:58:18;3.58;;;1.75;;
75216;SDS011;63800;51.972;5.682;2023-07-30T13:00:43;6.07;;;1.95;;
75216;SDS011;63800;51.972;5.682;2023-07-30T13:03:09;5.40;;;1.42;;
75216;SDS011;63800;51.972;5.682;2023-07-30T13:05:34;5.50;;;1.58;;
75216;SDS011;63800;51.972;5.682;2023-07-30T13:08:00;6.15;;;1.73;;
75216;SDS011;63800;51.972;5.682;2023-07-30T13:10:25;11.60;;;2.28;;
75216;SDS011;63800;51.972;5.682;2023-07-30T13:12:51;4.10;;;1.63;;
75216;SDS011;63800;51.972;5.682;2023-07-30T13:15:16;5.55;;;1.77;;
75216;SDS011;63800;51.972;5.682;2023-07-30T13:17:41;3.72;;;1.40;;
75216;SDS011;63800;51.972;5.682;2023-07-30T13:20:07;3.65;;;1.67;;
75216;SDS011;63800;51.972;5.682;2023-07-30T13:22:33;2.60;;;1.13;;
75216;SDS011;63800;51.972;5.682;2023-07-30T13:24:58;3.70;;;1.50;;
75216;SDS011;63800;51.972;5.682;2023-07-30T13:27:24;3.85;;;1.55;;
75216;SDS011;63800;51.972;5.682;2023-07-30T13:29:49;3.13;;;1.52;;
75216;SDS011;63800;51.972;5.682;2023-07-30T13:32:15;2.80;;;1.20;;
75216;SDS011;63800;51.972;5.682;2023-07-30T13:34:40;4.65;;;1.60;;
75216;SDS011;63800;51.972;5.682;2023-07-30T13:37:06;5.88;;;1.60;;
75216;SDS011;63800;51.972;5.682;2023-07-30T13:39:32;4.30;;;1.50;;
75216;SDS011;63800;51.972;5.682;2023-07-30T13:41:57;3.42;;;1.38;;
75216;SDS011;63800;51.972;5.682;2023-07-30T13:44:22;2.45;;;1.17;;
75216;SDS011;63800;51.972;5.682;2023-07-30T13:46:48;5.57;;;1.45;;
75216;SDS011;63800;51.972;5.682;2023-07-30T13:49:13;4.03;;;1.48;;
75216;SDS011;63800;51.972;5.682;2023-07-30T13:51:39;3.67;;;1.30;;
75216;SDS011;63800;51.972;5.682;2023-07-30T13:54:04;2.20;;;1.30;;
75216;SDS011;63800;51.972;5.682;2023-07-30T13:56:32;3.78;;;1.60;;
75216;SDS011;63800;51.972;5.682;2023-07-30T13:58:58;3.97;;;1.98;;
75216;SDS011;63800;51.972;5.682;2023-07-30T14:01:24;5.30;;;2.38;;
75216;SDS011;63800;51.972;5.682;2023-07-30T14:03:49;3.85;;;2.08;;
75216;SDS011;63800;51.972;5.682;2023-07-30T14:06:15;5.57;;;2.15;;
75216;SDS011;63800;51.972;5.682;2023-07-30T14:08:40;4.93;;;1.77;;
75216;SDS011;63800;51.972;5.682;2023-07-30T14:11:05;5.57;;;2.20;;
75216;SDS011;63800;51.972;5.682;2023-07-30T14:13:31;3.17;;;1.80;;
75216;SDS011;63800;51.972;5.682;2023-07-30T14:15:56;5.05;;;2.28;;
75216;SDS011;63800;51.972;5.682;2023-07-30T14:18:24;4.13;;;2.38;;
75216;SDS011;63800;51.972;5.682;2023-07-30T14:20:50;6.07;;;3.03;;
75216;SDS011;63800;51.972;5.682;2023-07-30T14:23:16;4.50;;;1.55;;
75216;SDS011;63800;51.972;5.682;2023-07-30T14:25:41;4.03;;;1.30;;
75216;SDS011;63800;51.972;5.682;2023-07-30T14:28:07;4.78;;;1.52;;
75216;SDS011;63800;51.972;5.682;2023-07-30T14:30:32;4.00;;;1.77;;
75216;SDS011;63800;51.972;5.682;2023-07-30T14:32:59;4.47;;;1.65;;
75216;SDS011;63800;51.972;5.682;2023-07-30T14:35:24;3.20;;;1.30;;
75216;SDS011;63800;51.972;5.682;2023-07-30T14:37:50;3.78;;;1.67;;